Westford, New York
Current Conditions -  °F | °C
As of 4:35 PM on Friday 24 Oct 2014 (Local Time) from KNY0 Reporting Station
Overcast Overcast  
Wind Chill: 52°   Ceiling: 3300
Heat Index: 52°   Visibility: 10mi
Dew Point: 44°   Wind: 6mph
Humidity: 73%   Direction: 10°N
Pressure: 29.81"   Gusts: NA
Location:  42.65°N, 74.8°W
Report Text: KNY0 242035Z AUTO 01005KT 10SM OVC033 11/06 A2981 RMK AO2 T01100064
Loading
Personal Weather Stations






























Interactive Weather Map
Tropical Storm Tracking
New forecast layout! Learn more

10-Day Weather Forecast

Advertisements
Track Severe Weather on mobile